createdAt,value
2022-11-02T00:00:48.911Z,25.55
2022-11-02T00:03:51.761Z,27.73
2022-11-02T00:06:54.233Z,23.85
2022-11-02T00:09:56.954Z,30.30
2022-11-02T00:12:59.471Z,32.80
2022-11-02T00:16:08.524Z,26.98
2022-11-02T00:19:11.059Z,26.73
2022-11-02T00:22:13.959Z,24.30
2022-11-02T00:25:18.814Z,23.65
2022-11-02T00:28:21.665Z,27.13
2022-11-02T00:31:24.104Z,27.17
2022-11-02T00:34:27.069Z,30.90
2022-11-02T00:37:29.512Z,25.15
2022-11-02T00:40:32.386Z,31.20
2022-11-02T00:43:34.985Z,25.13
2022-11-02T00:46:37.873Z,27.13
2022-11-02T00:49:40.801Z,27.10
2022-11-02T00:52:44.139Z,26.00
2022-11-02T00:55:47.595Z,25.35
2022-11-02T00:58:51.423Z,33.00
2022-11-02T01:01:56.570Z,24.67
2022-11-02T01:05:00.516Z,23.50
2022-11-02T01:08:03.354Z,15.65
2022-11-02T01:11:25.291Z,22.83
2022-11-02T01:14:27.726Z,22.83
2022-11-02T01:17:30.459Z,23.98
2022-11-02T01:20:32.954Z,22.17
2022-11-02T01:23:36.947Z,26.23
2022-11-02T01:26:39.449Z,23.58
2022-11-02T01:29:43.029Z,23.80
2022-11-02T01:32:45.555Z,15.52
2022-11-02T01:35:48.427Z,30.48
2022-11-02T01:38:51.285Z,32.60
2022-11-02T01:41:54.206Z,28.90
2022-11-02T01:44:56.869Z,24.80
2022-11-02T01:47:59.708Z,24.27
2022-11-02T01:51:06.073Z,23.45
2022-11-02T01:54:19.054Z,22.62
2022-11-02T01:57:22.300Z,24.75
2022-11-02T02:00:25.159Z,28.70
2022-11-02T02:03:30.643Z,32.03
2022-11-02T02:06:33.578Z,30.98
2022-11-02T02:09:37.155Z,30.55
2022-11-02T02:12:41.420Z,27.60
2022-11-02T02:15:50.290Z,27.60
2022-11-02T02:18:57.705Z,31.98
2022-11-02T02:22:12.092Z,26.90
2022-11-02T02:25:26.715Z,29.27
2022-11-02T02:28:35.205Z,32.13
2022-11-02T02:31:47.162Z,28.50
2022-11-02T02:34:59.793Z,35.80
2022-11-02T02:38:05.496Z,27.02
2022-11-02T02:41:14.657Z,27.77
2022-11-02T02:44:21.951Z,29.95
2022-11-02T02:47:27.859Z,26.83
2022-11-02T02:50:46.244Z,27.23
2022-11-02T02:53:53.946Z,28.05
2022-11-02T02:57:06.373Z,28.23
2022-11-02T03:00:17.535Z,30.85
2022-11-02T03:03:24.240Z,31.80
2022-11-02T03:06:30.836Z,27.73
2022-11-02T03:09:39.613Z,28.08
2022-11-02T03:12:46.546Z,32.03
2022-11-02T03:16:12.441Z,28.15
2022-11-02T03:19:15.458Z,29.63
2022-11-02T03:22:38.977Z,28.67
2022-11-02T03:25:47.498Z,31.62
2022-11-02T03:29:08.300Z,25.75
2022-11-02T03:32:19.583Z,26.40
2022-11-02T03:35:31.868Z,25.37
2022-11-02T03:38:41.238Z,29.80
2022-11-02T03:41:45.636Z,26.45
2022-11-02T03:44:52.396Z,30.00
2022-11-02T03:48:00.176Z,30.15
2022-11-02T03:51:06.093Z,33.43
2022-11-02T03:54:27.008Z,27.00
2022-11-02T03:57:34.622Z,28.25
2022-11-02T04:00:38.474Z,24.58
2022-11-02T04:03:44.260Z,27.58
2022-11-02T04:06:48.539Z,27.13
2022-11-02T04:09:51.573Z,26.65
2022-11-02T04:13:13.012Z,27.37
2022-11-02T04:16:16.499Z,24.95
2022-11-02T04:19:27.936Z,26.60
2022-11-02T04:22:50.576Z,25.17
2022-11-02T04:25:55.907Z,23.33
2022-11-02T04:29:05.734Z,24.60
2022-11-02T04:32:08.463Z,23.27
2022-11-02T04:35:11.322Z,27.52
2022-11-02T04:38:33.090Z,21.43
2022-11-02T04:41:41.709Z,22.37
2022-11-02T04:44:44.680Z,24.20
2022-11-02T04:47:48.514Z,23.67
2022-11-02T04:50:51.970Z,22.35
2022-11-02T04:53:55.834Z,24.33
2022-11-02T04:56:59.136Z,26.65
2022-11-02T05:00:02.191Z,25.73
2022-11-02T05:03:08.239Z,22.65
2022-11-02T05:06:14.700Z,26.42
2022-11-02T05:09:17.403Z,23.30
2022-11-02T05:12:23.144Z,25.55
2022-11-02T05:15:28.254Z,26.45
2022-11-02T05:18:31.335Z,24.50
2022-11-02T05:21:34.111Z,21.62
2022-11-02T05:24:38.791Z,23.57
2022-11-02T05:27:42.836Z,26.15
2022-11-02T05:30:45.667Z,24.80
2022-11-02T05:33:48.248Z,23.77
2022-11-02T05:36:51.189Z,25.17
2022-11-02T05:39:54.250Z,24.80
2022-11-02T05:43:01.920Z,24.98
2022-11-02T05:46:05.061Z,26.90
2022-11-02T05:49:07.831Z,30.42
2022-11-02T05:52:10.346Z,24.55
2022-11-02T05:55:13.402Z,26.97
2022-11-02T05:58:15.950Z,31.27
2022-11-02T06:01:18.740Z,29.27
2022-11-02T06:04:21.532Z,30.60
2022-11-02T06:07:23.998Z,28.12
2022-11-02T06:10:30.833Z,25.97
2022-11-02T06:13:33.292Z,29.80
2022-11-02T06:16:36.015Z,26.48
2022-11-02T06:19:38.772Z,25.88
2022-11-02T06:22:42.044Z,24.70
2022-11-02T06:25:53.852Z,27.67
2022-11-02T06:28:56.709Z,28.73
2022-11-02T06:31:59.953Z,27.85
2022-11-02T06:35:02.762Z,29.00
2022-11-02T06:38:05.384Z,23.73
2022-11-02T06:41:08.265Z,22.07
2022-11-02T06:44:11.939Z,25.05
2022-11-02T06:47:14.783Z,26.33
2022-11-02T06:50:17.781Z,24.67
2022-11-02T06:53:20.635Z,41.63
2022-11-02T06:56:23.224Z,33.27
2022-11-02T06:59:26.157Z,29.35
2022-11-02T07:02:28.870Z,25.90
2022-11-02T07:05:32.888Z,25.77
2022-11-02T07:08:35.639Z,19.80
2022-11-02T07:11:38.856Z,20.90
2022-11-02T07:14:41.635Z,18.70
2022-11-02T07:17:44.481Z,19.50
2022-11-02T07:20:47.139Z,16.77
2022-11-02T07:23:50.634Z,16.65
2022-11-02T07:26:53.162Z,17.80
2022-11-02T07:29:56.176Z,16.55
2022-11-02T07:32:58.871Z,15.77
2022-11-02T07:36:03.974Z,18.62
2022-11-02T07:39:09.584Z,17.50
2022-11-02T07:42:12.483Z,18.87
2022-11-02T07:45:18.163Z,17.17
2022-11-02T07:48:21.327Z,15.98
2022-11-02T07:51:23.864Z,17.25
2022-11-02T07:54:26.721Z,17.67
2022-11-02T07:57:29.295Z,18.83
2022-11-02T08:00:35.448Z,16.70
2022-11-02T08:03:38.467Z,15.13
2022-11-02T08:06:41.008Z,16.27
2022-11-02T08:09:43.860Z,15.05
2022-11-02T08:12:46.846Z,18.40
2022-11-02T08:15:53.765Z,15.23
2022-11-02T08:18:59.312Z,16.60
2022-11-02T08:22:02.314Z,16.37
2022-11-02T08:25:05.679Z,17.52
2022-11-02T08:28:13.510Z,17.30
2022-11-02T08:31:17.651Z,15.75
2022-11-02T08:34:20.447Z,15.23
2022-11-02T08:37:22.875Z,15.15
2022-11-02T08:40:26.514Z,14.48
2022-11-02T08:43:29.058Z,17.27
2022-11-02T08:46:31.940Z,20.15
2022-11-02T08:49:34.803Z,19.12
2022-11-02T08:52:40.609Z,18.87
2022-11-02T08:55:43.579Z,16.30
2022-11-02T08:58:46.571Z,15.93
2022-11-02T09:01:49.276Z,15.23
2022-11-02T09:04:52.275Z,14.32
2022-11-02T09:07:59.847Z,15.38
2022-11-02T09:11:04.704Z,16.35
2022-11-02T09:14:08.022Z,13.93
2022-11-02T09:17:10.940Z,18.60
2022-11-02T09:20:14.212Z,13.90
2022-11-02T09:23:17.880Z,13.77
2022-11-02T09:26:20.353Z,14.85
2022-11-02T09:32:27.354Z,11.75
2022-11-02T09:35:32.279Z,16.75
2022-11-02T09:38:34.936Z,14.98
2022-11-02T09:41:49.331Z,15.90
2022-11-02T09:45:12.883Z,12.03
2022-11-02T09:48:28.078Z,14.70
2022-11-02T09:51:37.806Z,14.98
2022-11-02T09:54:41.115Z,14.07
2022-11-02T09:57:46.172Z,16.73
2022-11-02T10:00:49.756Z,12.77
2022-11-02T10:04:40.885Z,13.20
2022-11-02T10:08:11.379Z,13.25
2022-11-02T10:11:22.016Z,14.63
2022-11-02T10:14:30.853Z,17.15
2022-11-02T10:17:37.354Z,13.03
2022-11-02T10:20:46.190Z,14.50
2022-11-02T10:23:53.859Z,13.77
2022-11-02T10:26:59.645Z,11.90
2022-11-02T10:30:18.356Z,14.43
2022-11-02T10:33:28.326Z,12.53
2022-11-02T10:37:01.035Z,11.93
2022-11-02T10:40:19.295Z,13.52
2022-11-02T10:43:40.837Z,11.57
2022-11-02T10:46:53.536Z,10.20
2022-11-02T10:50:24.258Z,9.23
2022-11-02T10:53:40.598Z,11.50
2022-11-02T10:56:47.448Z,9.75
2022-11-02T11:00:29.286Z,8.65
2022-11-02T11:03:32.252Z,6.55
2022-11-02T11:06:37.360Z,6.77
2022-11-02T11:09:52.283Z,7.90
2022-11-02T11:12:55.110Z,5.37
2022-11-02T11:15:58.295Z,9.30
2022-11-02T11:22:24.320Z,8.17
2022-11-02T11:25:28.394Z,7.93
2022-11-02T11:28:41.073Z,8.30
2022-11-02T11:31:43.714Z,10.95
2022-11-02T11:34:54.162Z,9.57
2022-11-02T11:37:59.226Z,11.30
2022-11-02T11:41:02.539Z,10.05
2022-11-02T11:44:08.310Z,10.15
2022-11-02T11:47:11.533Z,8.82
2022-11-02T11:50:22.610Z,10.70
2022-11-02T11:53:33.179Z,7.60
2022-11-02T11:56:35.974Z,7.00
2022-11-02T11:59:46.913Z,6.30
2022-11-02T12:03:04.222Z,8.45
2022-11-02T12:06:24.067Z,8.38
2022-11-02T12:09:54.834Z,5.23
2022-11-02T12:13:22.266Z,8.02
2022-11-02T12:17:03.398Z,11.32
2022-11-02T12:20:27.861Z,12.55
2022-11-02T12:23:56.647Z,7.75
2022-11-02T12:27:10.955Z,12.23
2022-11-02T12:30:17.157Z,6.75
2022-11-02T12:33:32.118Z,6.50
2022-11-02T12:37:31.287Z,7.85
2022-11-02T12:40:23.512Z,5.95
2022-11-02T12:43:28.938Z,8.27
2022-11-02T12:46:48.958Z,10.98
2022-11-02T12:50:00.897Z,7.70
2022-11-02T12:53:17.329Z,5.28
2022-11-02T12:56:23.313Z,5.25
2022-11-02T12:59:28.253Z,7.90
2022-11-02T13:02:31.879Z,7.32
2022-11-02T13:05:50.548Z,7.28
2022-11-02T13:09:18.865Z,8.18
2022-11-02T13:12:23.202Z,4.90
2022-11-02T13:15:27.914Z,5.27
2022-11-02T13:18:35.394Z,8.43
2022-11-02T13:21:44.085Z,7.85
2022-11-02T13:24:52.339Z,9.25
2022-11-02T13:28:04.263Z,5.45
2022-11-02T13:31:15.586Z,3.30
2022-11-02T13:34:23.291Z,3.17
2022-11-02T13:37:49.493Z,3.35
2022-11-02T13:41:01.802Z,5.05
2022-11-02T13:44:31.868Z,3.40
2022-11-02T13:47:52.036Z,4.77
2022-11-02T13:50:57.741Z,5.22
2022-11-02T13:54:20.159Z,6.55
2022-11-02T13:57:38.800Z,4.90
2022-11-02T14:00:44.863Z,7.32
2022-11-02T14:03:49.367Z,3.70
2022-11-02T14:06:53.864Z,3.67
2022-11-02T14:10:08.865Z,4.70
2022-11-02T14:13:14.674Z,4.95
2022-11-02T14:16:48.274Z,6.75
2022-11-02T14:19:52.682Z,4.33
2022-11-02T14:23:14.543Z,6.00
2022-11-02T14:26:31.156Z,4.55
2022-11-02T14:29:45.048Z,4.97
2022-11-02T14:33:02.565Z,3.17
2022-11-02T14:36:28.421Z,5.13
2022-11-02T14:39:49.880Z,7.47
2022-11-02T14:43:22.967Z,16.40
2022-11-02T14:46:58.112Z,9.73
2022-11-02T14:50:12.975Z,7.62
2022-11-02T14:53:27.072Z,6.23
2022-11-02T14:56:48.560Z,8.45
2022-11-02T14:59:53.952Z,9.02
2022-11-02T15:02:57.274Z,7.15
2022-11-02T15:06:19.379Z,9.52
2022-11-02T15:10:10.619Z,5.00
2022-11-02T15:13:19.422Z,4.72
2022-11-02T15:16:23.404Z,7.15
2022-11-02T15:19:53.701Z,6.57
2022-11-02T15:23:31.263Z,11.10
2022-11-02T15:27:01.109Z,12.40
2022-11-02T15:30:06.502Z,12.70
2022-11-02T15:33:29.203Z,10.73
2022-11-02T15:36:39.139Z,10.30
2022-11-02T15:39:48.526Z,11.88
2022-11-02T15:43:03.571Z,32.57
2022-11-02T15:46:33.923Z,44.00
2022-11-02T15:49:42.686Z,25.10
2022-11-02T15:53:16.900Z,12.13
2022-11-02T15:56:49.688Z,12.65
2022-11-02T16:00:13.361Z,18.17
2022-11-02T16:03:17.561Z,14.25
2022-11-02T16:06:26.353Z,11.32
2022-11-02T16:09:32.991Z,13.20
2022-11-02T16:12:35.663Z,13.70
2022-11-02T16:15:42.277Z,7.97
2022-11-02T16:18:51.051Z,5.57
2022-11-02T16:21:58.447Z,5.18
2022-11-02T16:25:12.061Z,7.95
2022-11-02T16:28:20.960Z,6.10
2022-11-02T16:31:31.603Z,7.40
2022-11-02T16:34:34.432Z,5.40
2022-11-02T16:37:37.273Z,5.25
2022-11-02T16:40:40.140Z,6.40
2022-11-02T16:43:45.769Z,10.73
2022-11-02T16:46:52.500Z,8.23
2022-11-02T16:49:55.018Z,7.55
2022-11-02T16:53:02.563Z,12.25
2022-11-02T16:56:16.814Z,11.63
2022-11-02T16:59:21.402Z,11.45
2022-11-02T17:02:37.551Z,10.37
2022-11-02T17:05:42.173Z,13.43
2022-11-02T17:08:51.208Z,12.82
2022-11-02T17:11:56.856Z,21.60
2022-11-02T17:15:01.338Z,33.65
2022-11-02T17:18:26.269Z,32.83
2022-11-02T17:21:29.582Z,22.80
2022-11-02T17:24:32.990Z,22.20
2022-11-02T17:27:39.388Z,18.55
2022-11-02T17:30:45.864Z,12.52
2022-11-02T17:33:48.946Z,17.20
2022-11-02T17:36:52.234Z,18.85
2022-11-02T17:39:55.298Z,21.60
2022-11-02T17:43:02.282Z,25.73
2022-11-02T17:46:04.961Z,20.65
2022-11-02T17:49:07.845Z,14.07
2022-11-02T17:52:13.078Z,10.65
2022-11-02T17:55:21.320Z,10.18
2022-11-02T17:58:23.887Z,10.73
2022-11-02T18:01:26.769Z,5.18
2022-11-02T18:04:30.400Z,4.43
2022-11-02T18:07:33.267Z,11.15
2022-11-02T18:10:44.711Z,7.87
2022-11-02T18:13:47.590Z,8.95
2022-11-02T18:16:52.829Z,10.38
2022-11-02T18:19:55.769Z,12.13
2022-11-02T18:22:58.591Z,8.48
2022-11-02T18:26:01.079Z,10.05
2022-11-02T18:29:04.681Z,8.50
2022-11-02T18:32:07.149Z,11.77
2022-11-02T18:35:12.444Z,8.27
2022-11-02T18:38:15.150Z,7.70
2022-11-02T18:41:35.042Z,10.10
2022-11-02T18:57:13.119Z,11.17
2022-11-02T19:00:17.527Z,12.13
2022-11-02T19:03:20.139Z,7.82
2022-11-02T19:06:42.787Z,8.63
2022-11-02T19:09:46.092Z,11.65
2022-11-02T19:12:49.099Z,10.10
2022-11-02T19:15:51.808Z,10.52
2022-11-02T19:18:54.859Z,8.52
2022-11-02T19:21:57.652Z,7.30
2022-11-02T19:25:01.271Z,8.07
2022-11-02T19:28:04.671Z,7.60
2022-11-02T19:31:10.902Z,10.40
2022-11-02T19:34:13.767Z,6.35
2022-11-02T19:37:16.714Z,10.68
2022-11-02T19:40:19.302Z,9.52
2022-11-02T19:43:22.307Z,10.20
2022-11-02T19:46:25.742Z,9.60
2022-11-02T19:49:28.753Z,10.35
2022-11-02T19:52:31.767Z,10.32
2022-11-02T19:55:34.883Z,14.40
2022-11-02T19:58:37.919Z,10.20
2022-11-02T20:01:42.529Z,14.93
2022-11-02T20:04:45.942Z,11.18
2022-11-02T20:07:48.573Z,11.82
2022-11-02T20:10:51.616Z,10.77
2022-11-02T20:13:56.059Z,14.00
2022-11-02T20:17:17.803Z,13.27
2022-11-02T20:20:21.668Z,15.35
2022-11-02T20:23:24.767Z,14.98
2022-11-02T20:26:29.864Z,12.37
2022-11-02T20:29:33.145Z,13.73
2022-11-02T20:32:35.849Z,12.90
2022-11-02T20:35:40.044Z,12.20
2022-11-02T20:38:42.844Z,11.07
2022-11-02T20:41:46.188Z,16.33
2022-11-02T20:44:49.531Z,10.70
2022-11-02T20:47:52.381Z,11.30
2022-11-02T20:50:54.912Z,12.73
2022-11-02T20:53:57.623Z,22.70
2022-11-02T20:57:00.651Z,20.73
2022-11-02T21:00:07.138Z,18.97
2022-11-02T21:03:09.929Z,15.75
2022-11-02T21:06:12.703Z,17.37
2022-11-02T21:09:15.371Z,16.27
2022-11-02T21:12:36.792Z,13.23
2022-11-02T21:15:39.654Z,15.00
2022-11-02T21:18:42.721Z,15.38
2022-11-02T21:21:45.225Z,16.77
2022-11-02T21:24:48.033Z,12.65
2022-11-02T21:27:50.939Z,13.15
2022-11-02T21:30:53.798Z,17.97
2022-11-02T21:33:56.336Z,20.08
2022-11-02T21:36:59.133Z,18.98
2022-11-02T21:40:02.715Z,18.92
2022-11-02T21:43:05.796Z,22.35
2022-11-02T21:46:08.694Z,18.13
2022-11-02T21:49:13.098Z,16.42
2022-11-02T21:52:15.654Z,19.35
2022-11-02T21:55:18.432Z,15.18
2022-11-02T21:58:21.062Z,12.90
2022-11-02T22:01:48.491Z,13.87
2022-11-02T22:04:53.579Z,13.25
2022-11-02T22:08:14.888Z,13.05
2022-11-02T22:11:21.699Z,16.83
2022-11-02T22:14:24.148Z,14.20
2022-11-02T22:17:48.692Z,21.37
2022-11-02T22:20:55.827Z,13.43
2022-11-02T22:23:59.230Z,22.98
2022-11-02T22:27:03.498Z,28.83
2022-11-02T22:30:08.640Z,17.27
2022-11-02T22:33:11.632Z,28.27
2022-11-02T22:36:16.716Z,23.38
2022-11-02T22:39:19.138Z,14.13
2022-11-02T22:42:22.021Z,18.73
2022-11-02T22:45:24.448Z,15.75
2022-11-02T22:48:27.166Z,13.43
2022-11-02T22:51:31.572Z,17.70
2022-11-02T22:54:34.318Z,18.90
2022-11-02T22:57:36.800Z,25.00
2022-11-02T23:00:40.044Z,22.87
2022-11-02T23:03:42.910Z,20.07
2022-11-02T23:06:45.700Z,14.35
2022-11-02T23:09:48.313Z,15.48
2022-11-02T23:12:51.104Z,12.82
2022-11-02T23:16:21.104Z,13.95
2022-11-02T23:19:29.650Z,14.23
2022-11-02T23:22:32.470Z,19.50
2022-11-02T23:25:35.231Z,12.23
2022-11-02T23:28:56.748Z,13.18
2022-11-02T23:32:18.163Z,11.48
2022-11-02T23:35:38.968Z,12.77
2022-11-02T23:39:05.640Z,14.30
2022-11-02T23:42:08.113Z,14.35
2022-11-02T23:45:11.411Z,13.13
2022-11-02T23:51:40.102Z,14.97
2022-11-02T23:55:01.010Z,11.05
2022-11-02T23:58:03.782Z,14.77
